メインページ
METAR-TAF:

METAR-TAF

空港 :

フェアバンクス, アラスカ州, アメリカ合衆国

フェアバンクス国際空港

緯度: 64-48-14N, 経度: 147-52-34W, 海抜: 132m

現時点の気象観測

当レポートは20分前の16:13(UTC)に作成
の風 5kt
気温 -16°C
湿度 92%
気圧 1010 hPa
視程: 6.4km
高度1200ftの雲は散在している
高度3100ftの曇り
小雪, 靄

METAR: PAFA 221613Z 01005KT 4SM -SN BR SCT012 OVC031 M16/M17 A2983 RMK AO2 T11561172

時間: 07:33 (16:33 UTC)

予報

当レポートは5時間2分前の11:31(UTC)に作成
予報は22日の 12時(UTC)から 23日の 18時(UTC)まで有効
北東の風 3kt
視程: 4.8km
高度1000ftの雲はほとんどない
高度3000ftの曇り
小雪, 靄
22日の 14時(UTC)から 22日の 18時(UTC)まで一時的に
視程: 3.2km
高度1500ftの千切れ雲あり
高度3000ftの曇り
小雪, 靄
22日の 2000時(UTC)から
変向風 3kt
視程: 9.7km
高度3000ftの千切れ雲あり
高度5000ftの曇り
小雪, 靄
23日の 0300時(UTC)から
北東の風 4kt
視程: 10km
高度3500ftの雲は散在している
高度5000ftの千切れ雲あり
高度10000ftの曇り
23日の 0700時(UTC)から
北東の風 3kt
視程: 10km
高度5000ftの雲はほとんどない
高度10000ftの雲はほとんどない

TAF: PAFA 221131Z 2212/2318 04003KT 3SM -SN BR FEW010 OVC030 TEMPO 2214/2218 2SM -SN BR BKN015 OVC030 FM222000 VRB03KT 6SM -SN BR BKN030 OVC050 FM230300 04004KT P6SM SCT035 BKN050 OVC100 FM230700 04003KT P6SM FEW050 FEW100

4,000以上の空港の気象観測と天気予報(METAR報とTAF報)

利用可能な観測所は地図上に黄色い丸と赤い丸で示す。

丸の上にカーソルを重ねると観測所名を参照できる。

次にクリックすると気象観測と天気予報を参照できる。

マップの切り替え:黒色「×」印の緑ボタンをクリックして拡大、「-」印の緑ボタンをクリックして縮小、緑色の三角印をクリックして隣りの地図に切り替え


METAR-TAF: